createdAt,value
2023-04-07T00:04:17.571Z,47
2023-04-07T00:14:17.376Z,48
2023-04-07T00:24:31.026Z,48
2023-04-07T00:34:17.353Z,48
2023-04-07T00:44:17.326Z,49
2023-04-07T00:54:17.290Z,49
2023-04-07T01:04:17.414Z,49
2023-04-07T01:14:17.291Z,50
2023-04-07T01:24:17.264Z,50
2023-04-07T01:34:17.260Z,50
2023-04-07T01:44:17.251Z,51
2023-04-07T01:54:17.250Z,51
2023-04-07T02:04:17.204Z,51
2023-04-07T02:14:17.197Z,51
2023-04-07T02:24:17.195Z,52
2023-04-07T02:34:17.205Z,52
2023-04-07T02:44:17.149Z,52
2023-04-07T02:54:17.178Z,53
2023-04-07T03:04:17.191Z,54
2023-04-07T03:14:17.097Z,54
2023-04-07T03:24:17.098Z,54
2023-04-07T03:34:17.100Z,55
2023-04-07T03:44:17.080Z,55
2023-04-07T03:54:17.069Z,55
2023-04-07T04:04:17.446Z,56
2023-04-07T04:14:17.056Z,56
2023-04-07T04:24:17.067Z,56
2023-04-07T04:34:17.034Z,57
2023-04-07T04:44:16.991Z,57
2023-04-07T04:54:17.020Z,57
2023-04-07T05:04:17.298Z,57
2023-04-07T05:14:16.968Z,57
2023-04-07T05:24:16.957Z,57
2023-04-07T05:34:16.984Z,58
2023-04-07T05:44:16.962Z,58
2023-04-07T05:54:16.915Z,58
2023-04-07T06:04:16.959Z,58
2023-04-07T06:14:16.901Z,57
2023-04-07T06:24:17.168Z,58
2023-04-07T06:34:16.860Z,60
2023-04-07T06:44:16.859Z,62
2023-04-07T06:54:16.869Z,64
2023-04-07T07:04:16.967Z,65
2023-04-07T07:14:16.827Z,65
2023-04-07T07:24:16.797Z,66
2023-04-07T07:34:16.830Z,67
2023-04-07T07:44:16.778Z,68
2023-04-07T07:54:16.756Z,70
2023-04-07T08:04:16.847Z,71
2023-04-07T08:14:21.776Z,72
2023-04-07T08:24:16.716Z,73
2023-04-07T08:34:16.694Z,74
2023-04-07T08:44:16.694Z,75
2023-04-07T08:54:16.661Z,75
2023-04-07T09:04:16.712Z,76
2023-04-07T09:14:16.630Z,77
2023-04-07T09:24:16.635Z,78
2023-04-07T09:34:16.612Z,78
2023-04-07T09:44:16.614Z,79
2023-04-07T09:54:16.585Z,80
2023-04-07T10:04:16.615Z,80
2023-04-07T10:14:16.558Z,81
2023-04-07T10:24:16.543Z,83
2023-04-07T10:34:16.535Z,85
2023-04-07T10:44:16.509Z,85
2023-04-07T10:54:16.472Z,84
2023-04-07T11:04:16.629Z,83
2023-04-07T11:14:16.467Z,82
2023-04-07T11:24:16.653Z,79
2023-04-07T11:34:16.393Z,76
2023-04-07T11:44:16.398Z,73
2023-04-07T11:54:16.354Z,71
2023-04-07T12:04:16.577Z,69
2023-04-07T12:14:16.324Z,67
2023-04-07T12:24:16.287Z,65
2023-04-07T12:34:16.278Z,63
2023-04-07T12:44:16.304Z,62
2023-04-07T12:54:16.259Z,60
2023-04-07T13:04:16.316Z,58
2023-04-07T13:14:16.173Z,57
2023-04-07T13:24:16.175Z,56
2023-04-07T13:34:16.185Z,58
2023-04-07T13:44:16.150Z,62
2023-04-07T13:54:16.122Z,66
2023-04-07T14:04:16.152Z,68
2023-04-07T14:14:16.065Z,70
2023-04-07T14:24:16.120Z,72
2023-04-07T14:34:16.059Z,72
2023-04-07T14:44:16.009Z,69
2023-04-07T14:54:16.053Z,66
2023-04-07T15:04:16.129Z,64
2023-04-07T15:14:15.978Z,62
2023-04-07T15:24:16.443Z,60
2023-04-07T15:34:15.943Z,59
2023-04-07T15:44:15.946Z,59
2023-04-07T15:54:15.892Z,60
2023-04-07T16:04:16.033Z,59
2023-04-07T16:14:15.864Z,58
2023-04-07T16:24:15.815Z,58
2023-04-07T16:34:15.820Z,58
2023-04-07T16:44:15.788Z,58
2023-04-07T16:54:15.784Z,59
2023-04-07T17:04:15.873Z,59
2023-04-07T17:14:15.719Z,59
2023-04-07T17:24:15.713Z,58
2023-04-07T17:34:15.679Z,58
2023-04-07T17:44:15.683Z,58
2023-04-07T17:54:15.652Z,58
2023-04-07T18:04:15.709Z,59
2023-04-07T18:14:15.657Z,59
2023-04-07T18:24:15.609Z,60
2023-04-07T18:34:15.578Z,60
2023-04-07T18:44:15.595Z,61
2023-04-07T18:54:15.579Z,61
2023-04-07T19:04:15.575Z,62
2023-04-07T19:14:15.521Z,62
2023-04-07T19:24:15.496Z,63
2023-04-07T19:34:15.520Z,63
2023-04-07T19:44:15.475Z,64
2023-04-07T19:54:15.471Z,64
2023-04-07T20:04:15.491Z,64
2023-04-07T20:14:15.459Z,65
2023-04-07T20:24:15.429Z,65
2023-04-07T20:34:15.415Z,65
2023-04-07T20:44:15.390Z,66
2023-04-07T20:54:15.394Z,66
2023-04-07T21:04:15.421Z,66
2023-04-07T21:14:15.334Z,66
2023-04-07T21:24:15.315Z,67
2023-04-07T21:34:15.360Z,67
2023-04-07T21:44:15.314Z,67
2023-04-07T21:54:15.322Z,68
2023-04-07T22:04:15.376Z,68
2023-04-07T22:14:15.291Z,68
2023-04-07T22:24:15.268Z,68
2023-04-07T22:34:15.237Z,69
2023-04-07T22:44:15.376Z,69
2023-04-07T22:54:15.200Z,69
2023-04-07T23:04:15.231Z,69
2023-04-07T23:14:15.189Z,70
2023-04-07T23:24:15.157Z,70
2023-04-07T23:34:15.143Z,70
2023-04-07T23:44:15.145Z,70
2023-04-07T23:54:15.149Z,71
